Time;durP1;ratioP1;P1;durP2;ratioP2;P2;SDS_P1;SDS_P2;PMS_P1;PMS_P2;Temp;Humidity;BMP_temperature;BMP_pressure;BME280_temperature;BME280_humidity;BME280_pressure;Samples;Min_cycle;Max_cycle;Signal;HPM_P1;HPM_P2
2021/03/18 00:01:08;;;;;;;40.72;4.38;;;;;;;;;;5025606;28;20028;-60
2021/03/18 00:03:36;;;;;;;45.00;4.00;;;;;;;;;;5027960;28;20670;-50
2021/03/18 00:06:04;;;;;;;28.83;4.97;;;;;;;;;;5028003;28;20022;-56
2021/03/18 00:08:31;;;;;;;27.38;3.78;;;;;;;;;;5028802;28;20481;-54
2021/03/18 00:10:58;;;;;;;43.33;4.07;;;;;;;;;;5025400;28;20026;-51
2021/03/18 00:13:26;;;;;;;35.20;3.70;;;;;;;;;;5029575;28;20025;-54
2021/03/18 00:15:53;;;;;;;43.58;4.60;;;;;;;;;;5014657;28;20017;-53
2021/03/18 00:18:21;;;;;;;36.72;3.47;;;;;;;;;;5021903;28;20112;-54
2021/03/18 00:20:48;;;;;;;30.77;3.65;;;;;;;;;;5016724;28;20033;-55
2021/03/18 00:23:15;;;;;;;27.52;3.53;;;;;;;;;;5013433;28;20029;-54
2021/03/18 00:25:43;;;;;;;28.98;3.97;;;;;;;;;;5024549;28;20119;-47
2021/03/18 00:28:10;;;;;;;26.70;3.67;;;;;;;;;;5023413;28;20026;-49
2021/03/18 00:30:37;;;;;;;31.98;3.25;;;;;;;;;;5027556;28;20071;-50
2021/03/18 00:33:04;;;;;;;22.30;3.58;;;;;;;;;;5018469;28;20022;-53
2021/03/18 00:35:31;;;;;;;28.30;4.00;;;;;;;;;;5026379;28;20033;-50
2021/03/18 00:37:58;;;;;;;30.13;3.10;;;;;;;;;;5030220;28;20583;-53
2021/03/18 00:40:26;;;;;;;23.35;2.95;;;;;;;;;;5025329;28;20026;-55
2021/03/18 00:42:55;;;;;;;22.13;3.60;;;;;;;;;;5014518;28;20025;-52
2021/03/18 00:45:23;;;;;;;24.83;3.88;;;;;;;;;;5016979;28;20417;-56
2021/03/18 00:47:51;;;;;;;32.67;3.47;;;;;;;;;;5016593;28;20497;-53
2021/03/18 00:50:38;;;;;;;32.95;4.55;;;;;;;;;;5018201;28;20045;-52
2021/03/18 00:53:05;;;;;;;24.58;4.03;;;;;;;;;;5017486;28;20176;-50
2021/03/18 00:55:32;;;;;;;38.60;4.68;;;;;;;;;;5027596;28;20389;-51
2021/03/18 00:58:00;;;;;;;37.13;4.40;;;;;;;;;;5019998;28;20026;-49
2021/03/18 01:00:35;;;;;;;44.25;5.35;;;;;;;;;;5011532;28;20033;-48
2021/03/18 01:03:02;;;;;;;38.75;6.25;;;;;;;;;;5012051;28;20710;-49
2021/03/18 01:05:29;;;;;;;26.80;5.50;;;;;;;;;;5011562;28;20109;-49
2021/03/18 01:07:56;;;;;;;36.55;5.90;;;;;;;;;;5011852;28;20014;-51
2021/03/18 01:10:25;;;;;;;32.42;5.85;;;;;;;;;;5011637;28;20049;-49
2021/03/18 01:12:52;;;;;;;25.63;5.07;;;;;;;;;;5011602;28;20526;-50
2021/03/18 01:15:19;;;;;;;30.10;5.60;;;;;;;;;;5011616;28;20076;-50
2021/03/18 01:17:46;;;;;;;25.88;4.90;;;;;;;;;;5011807;28;20029;-49
2021/03/18 01:20:15;;;;;;;27.73;5.00;;;;;;;;;;5011633;28;20030;-50
2021/03/18 01:22:42;;;;;;;27.00;5.65;;;;;;;;;;5011450;28;20434;-48
2021/03/18 01:25:10;;;;;;;25.67;5.72;;;;;;;;;;5011531;28;20068;-50
2021/03/18 01:27:38;;;;;;;26.42;5.47;;;;;;;;;;5011301;28;20029;-52
2021/03/18 01:30:07;;;;;;;32.88;6.03;;;;;;;;;;5008558;28;20084;-49
2021/03/18 01:32:34;;;;;;;19.90;4.68;;;;;;;;;;5027284;28;20080;-51
2021/03/18 01:35:01;;;;;;;28.38;5.43;;;;;;;;;;5028956;28;20397;-49
2021/03/18 01:37:28;;;;;;;30.00;4.68;;;;;;;;;;5028329;28;20551;-50
2021/03/18 01:39:56;;;;;;;28.55;5.32;;;;;;;;;;5015709;28;20471;-49
2021/03/18 01:42:23;;;;;;;31.83;5.28;;;;;;;;;;5021718;28;20021;-53
2021/03/18 01:44:51;;;;;;;20.38;4.38;;;;;;;;;;5028035;28;20071;-51
2021/03/18 01:47:18;;;;;;;33.88;5.00;;;;;;;;;;5013313;28;20026;-55
2021/03/18 01:49:45;;;;;;;24.75;4.72;;;;;;;;;;5025673;28;20065;-54
2021/03/18 01:52:14;;;;;;;29.80;4.90;;;;;;;;;;5016962;28;20045;-55
2021/03/18 01:54:41;;;;;;;17.30;3.88;;;;;;;;;;5021895;28;20117;-54
2021/03/18 01:57:08;;;;;;;21.55;4.13;;;;;;;;;;5025937;28;20018;-53
2021/03/18 01:59:35;;;;;;;21.13;4.18;;;;;;;;;;5018334;28;20018;-52
2021/03/18 02:02:02;;;;;;;22.70;4.88;;;;;;;;;;5022060;28;20036;-50
2021/03/18 02:04:29;;;;;;;27.85;4.40;;;;;;;;;;5017260;28;20022;-51
2021/03/18 02:06:56;;;;;;;24.13;4.30;;;;;;;;;;5022234;28;20014;-49
2021/03/18 02:09:23;;;;;;;30.95;4.53;;;;;;;;;;5017521;28;20014;-48
2021/03/18 02:11:50;;;;;;;19.00;3.97;;;;;;;;;;5020877;28;20397;-50
2021/03/18 02:14:17;;;;;;;17.92;4.70;;;;;;;;;;5018401;28;20036;-49
2021/03/18 02:16:45;;;;;;;21.20;3.83;;;;;;;;;;5019666;28;20482;-48
2021/03/18 02:19:30;;;;;;;22.45;4.35;;;;;;;;;;5020453;28;20709;-48
2021/03/18 02:22:00;;;;;;;14.73;3.78;;;;;;;;;;5020216;28;20382;-50
2021/03/18 02:24:45;;;;;;;20.42;4.07;;;;;;;;;;5018928;28;20021;-48
2021/03/18 02:27:18;;;;;;;21.90;3.65;;;;;;;;;;5020961;28;20028;-49
2021/03/18 02:30:03;;;;;;;15.35;3.22;;;;;;;;;;5026774;28;20049;-49
2021/03/18 02:32:48;;;;;;;14.93;3.15;;;;;;;;;;5021645;28;20024;-48
2021/03/18 02:35:18;;;;;;;15.80;3.90;;;;;;;;;;5016646;28;20663;-49
2021/03/18 02:38:24;;;;;;;13.57;3.45;;;;;;;;;;5025199;28;20128;-54
2021/03/18 02:40:53;;;;;;;15.63;2.95;;;;;;;;;;4941420;29;20027;-49
2021/03/18 02:43:22;;;;;;;13.40;3.75;;;;;;;;;;4950786;29;20566;-48
2021/03/18 02:45:55;;;;;;;34.03;3.35;;;;;;;;;;4981328;28;20413;-48
2021/03/18 02:48:23;;;;;;;12.65;3.38;;;;;;;;;;5026842;28;20052;-49
2021/03/18 02:50:53;;;;;;;18.83;3.17;;;;;;;;;;5032930;28;20044;-51
2021/03/18 02:53:21;;;;;;;11.52;3.28;;;;;;;;;;5029390;28;20022;-51
2021/03/18 02:55:48;;;;;;;17.90;3.95;;;;;;;;;;5031351;28;20451;-50
2021/03/18 02:58:17;;;;;;;10.77;3.05;;;;;;;;;;5032526;28;20057;-50
2021/03/18 03:00:44;;;;;;;11.00;3.05;;;;;;;;;;5027649;28;20018;-51
2021/03/18 03:03:11;;;;;;;15.98;3.50;;;;;;;;;;5023170;28;20020;-48
2021/03/18 03:05:38;;;;;;;12.32;2.88;;;;;;;;;;5023953;28;20017;-49
2021/03/18 03:08:08;;;;;;;13.45;2.83;;;;;;;;;;5023416;28;20025;-55
2021/03/18 03:10:36;;;;;;;12.38;2.60;;;;;;;;;;5022901;28;20022;-51
2021/03/18 03:13:04;;;;;;;13.48;2.92;;;;;;;;;;5024011;28;20025;-52
2021/03/18 03:15:32;;;;;;;12.23;3.05;;;;;;;;;;5023175;28;20028;-50
2021/03/18 03:18:09;;;;;;;12.45;2.65;;;;;;;;;;5022608;28;20052;-55
2021/03/18 03:20:37;;;;;;;13.23;2.83;;;;;;;;;;5022558;28;20021;-56
2021/03/18 03:23:06;;;;;;;12.20;3.25;;;;;;;;;;5028769;28;20025;-52
2021/03/18 03:25:37;;;;;;;11.80;3.50;;;;;;;;;;5033334;28;20026;-51
2021/03/18 03:28:05;;;;;;;10.23;2.45;;;;;;;;;;5033584;28;20021;-52
2021/03/18 03:30:32;;;;;;;15.25;2.88;;;;;;;;;;5033691;28;20059;-51
2021/03/18 03:32:59;;;;;;;12.45;2.30;;;;;;;;;;5033301;28;20056;-51
2021/03/18 03:35:27;;;;;;;11.32;2.80;;;;;;;;;;5033287;28;20385;-50
2021/03/18 03:37:54;;;;;;;12.90;2.45;;;;;;;;;;5033691;28;20068;-51
2021/03/18 03:40:22;;;;;;;12.40;2.83;;;;;;;;;;5033216;28;20022;-50
2021/03/18 03:42:49;;;;;;;11.73;2.55;;;;;;;;;;5033087;28;20025;-48
2021/03/18 03:45:17;;;;;;;8.75;2.53;;;;;;;;;;5033116;28;20020;-52
2021/03/18 03:47:44;;;;;;;11.20;2.67;;;;;;;;;;5025916;28;20424;-52
2021/03/18 03:50:13;;;;;;;8.95;2.03;;;;;;;;;;5031104;28;20041;-48
2021/03/18 03:52:43;;;;;;;8.35;2.42;;;;;;;;;;5032475;28;20022;-49
2021/03/18 03:55:22;;;;;;;7.00;2.40;;;;;;;;;;5031961;28;20022;-50
2021/03/18 03:58:00;;;;;;;5.13;2.00;;;;;;;;;;5032742;28;20067;-51
2021/03/18 04:00:28;;;;;;;6.78;2.17;;;;;;;;;;5032247;28;20018;-51
2021/03/18 04:02:58;;;;;;;8.63;2.35;;;;;;;;;;5032658;28;20128;-47
2021/03/18 04:05:25;;;;;;;7.97;2.15;;;;;;;;;;5032035;28;20466;-48
2021/03/18 04:07:55;;;;;;;9.13;2.65;;;;;;;;;;5032796;28;20179;-49
2021/03/18 04:10:22;;;;;;;7.65;1.80;;;;;;;;;;5032099;28;20570;-50
2021/03/18 04:12:49;;;;;;;7.78;2.15;;;;;;;;;;5032633;28;20473;-51
2021/03/18 04:15:18;;;;;;;12.00;2.38;;;;;;;;;;5031542;28;20124;-48
2021/03/18 04:17:50;;;;;;;6.43;1.90;;;;;;;;;;5030757;28;20473;-49
2021/03/18 04:20:19;;;;;;;7.20;2.03;;;;;;;;;;5032498;28;20084;-52
2021/03/18 04:22:48;;;;;;;6.28;1.88;;;;;;;;;;5032270;28;20492;-53
2021/03/18 04:25:16;;;;;;;7.82;2.00;;;;;;;;;;5032024;28;20071;-54
2021/03/18 04:27:43;;;;;;;7.13;1.85;;;;;;;;;;5031779;28;20060;-55
2021/03/18 04:30:11;;;;;;;6.20;1.70;;;;;;;;;;5032308;28;20541;-54
2021/03/18 04:32:39;;;;;;;5.63;1.90;;;;;;;;;;5031619;28;20087;-51
2021/03/18 04:35:06;;;;;;;6.75;1.85;;;;;;;;;;5031901;28;20029;-55
2021/03/18 04:37:37;;;;;;;9.75;2.30;;;;;;;;;;5031805;28;20017;-54
2021/03/18 04:40:06;;;;;;;4.75;2.03;;;;;;;;;;5031861;28;20021;-50
2021/03/18 04:42:34;;;;;;;11.50;2.10;;;;;;;;;;5031509;28;20485;-50
2021/03/18 04:45:01;;;;;;;6.15;1.88;;;;;;;;;;5031770;28;20098;-51
2021/03/18 04:47:29;;;;;;;6.20;1.88;;;;;;;;;;5030527;28;20025;-51
2021/03/18 04:49:56;;;;;;;6.10;1.45;;;;;;;;;;5031896;28;20037;-50
2021/03/18 04:52:23;;;;;;;5.85;1.83;;;;;;;;;;5031615;28;20029;-52
2021/03/18 04:54:50;;;;;;;7.97;2.08;;;;;;;;;;5031769;28;20517;-50
2021/03/18 04:57:21;;;;;;;10.63;1.88;;;;;;;;;;5031124;28;20616;-51
2021/03/18 04:59:49;;;;;;;5.70;1.60;;;;;;;;;;5031550;28;20067;-51
2021/03/18 05:02:16;;;;;;;5.97;1.58;;;;;;;;;;5031525;28;20013;-49
2021/03/18 05:04:44;;;;;;;3.72;1.35;;;;;;;;;;5031722;28;20481;-51
2021/03/18 05:07:13;;;;;;;7.32;1.67;;;;;;;;;;5031596;28;20108;-54
2021/03/18 05:09:40;;;;;;;6.47;1.80;;;;;;;;;;5031319;28;20017;-53
2021/03/18 05:12:08;;;;;;;5.13;1.20;;;;;;;;;;5031378;28;20116;-52
2021/03/18 05:14:35;;;;;;;6.72;1.73;;;;;;;;;;5030995;28;20370;-55
2021/03/18 05:17:03;;;;;;;4.30;1.70;;;;;;;;;;5031524;28;20113;-54
2021/03/18 05:19:30;;;;;;;4.20;1.55;;;;;;;;;;5030782;28;20033;-49
2021/03/18 05:21:57;;;;;;;9.07;2.20;;;;;;;;;;5031576;28;20477;-53
2021/03/18 05:24:25;;;;;;;4.07;1.50;;;;;;;;;;5030916;28;20026;-52
2021/03/18 05:26:52;;;;;;;5.45;2.00;;;;;;;;;;5031037;28;20367;-50
2021/03/18 05:29:19;;;;;;;4.28;1.60;;;;;;;;;;5034203;28;20468;-51
2021/03/18 05:31:46;;;;;;;4.55;1.30;;;;;;;;;;5035434;28;20018;-52
2021/03/18 05:34:14;;;;;;;4.40;1.45;;;;;;;;;;5034809;28;20034;-48
2021/03/18 05:36:41;;;;;;;6.53;1.40;;;;;;;;;;5035058;28;20079;-50
2021/03/18 05:39:08;;;;;;;4.22;1.45;;;;;;;;;;5035274;28;20029;-51
2021/03/18 05:41:35;;;;;;;4.68;1.55;;;;;;;;;;5034308;28;20377;-53
2021/03/18 05:44:05;;;;;;;3.80;1.48;;;;;;;;;;5035167;28;20025;-50
2021/03/18 05:46:32;;;;;;;7.82;2.10;;;;;;;;;;5034423;28;20527;-52
2021/03/18 05:48:59;;;;;;;3.92;1.40;;;;;;;;;;5035200;28;20407;-50
2021/03/18 05:51:27;;;;;;;4.18;1.40;;;;;;;;;;5034546;28;20022;-53
2021/03/18 05:53:54;;;;;;;6.35;1.58;;;;;;;;;;5034709;28;20059;-50
2021/03/18 05:56:22;;;;;;;4.63;1.52;;;;;;;;;;5034470;28;20028;-51
2021/03/18 05:58:52;;;;;;;8.18;1.58;;;;;;;;;;5035068;28;20076;-52
2021/03/18 06:01:20;;;;;;;3.67;1.35;;;;;;;;;;5034546;28;20025;-49
2021/03/18 06:03:49;;;;;;;5.10;1.50;;;;;;;;;;5034920;28;20091;-49
2021/03/18 06:06:16;;;;;;;3.97;1.20;;;;;;;;;;5034030;28;20033;-49
2021/03/18 06:08:43;;;;;;;3.50;1.35;;;;;;;;;;5034703;28;20381;-50
2021/03/18 06:11:11;;;;;;;6.63;1.70;;;;;;;;;;5034478;28;20037;-51
2021/03/18 06:13:39;;;;;;;9.27;1.40;;;;;;;;;;5034625;28;20034;-52
2021/03/18 06:16:07;;;;;;;4.57;1.90;;;;;;;;;;5034770;28;20026;-50
2021/03/18 06:18:35;;;;;;;3.47;0.93;;;;;;;;;;5034209;28;20026;-52
2021/03/18 06:21:03;;;;;;;3.58;1.33;;;;;;;;;;5034260;28;20029;-55
2021/03/18 06:23:31;;;;;;;5.65;1.30;;;;;;;;;;5033735;28;20100;-49
2021/03/18 06:25:59;;;;;;;4.18;1.40;;;;;;;;;;5034732;28;20026;-49
2021/03/18 06:28:28;;;;;;;4.20;1.35;;;;;;;;;;5033674;28;20022;-51
2021/03/18 06:30:55;;;;;;;2.45;0.90;;;;;;;;;;5034414;28;20033;-55
2021/03/18 06:33:27;;;;;;;2.65;1.05;;;;;;;;;;5033360;28;20116;-51
2021/03/18 06:35:55;;;;;;;3.63;1.50;;;;;;;;;;5034520;28;20026;-51
2021/03/18 06:38:29;;;;;;;4.13;1.40;;;;;;;;;;5033276;28;20803;-49
2021/03/18 06:40:56;;;;;;;2.78;0.90;;;;;;;;;;5033336;28;20029;-52
2021/03/18 06:43:40;;;;;;;3.08;1.05;;;;;;;;;;5033600;28;20502;-51
2021/03/18 06:46:17;;;;;;;3.58;1.15;;;;;;;;;;5034223;28;20022;-49
2021/03/18 06:48:44;;;;;;;2.22;0.93;;;;;;;;;;5033264;28;20053;-51
2021/03/18 06:51:22;;;;;;;4.03;1.15;;;;;;;;;;5034133;28;20040;-49
2021/03/18 06:53:50;;;;;;;3.13;1.35;;;;;;;;;;5033222;28;20064;-52
2021/03/18 06:56:28;;;;;;;3.67;1.15;;;;;;;;;;5033814;28;20424;-49
2021/03/18 06:58:55;;;;;;;3.22;1.20;;;;;;;;;;5015899;28;20029;-51
2021/03/18 07:01:23;;;;;;;3.47;1.20;;;;;;;;;;5033418;28;20032;-51
2021/03/18 07:03:50;;;;;;;5.15;1.20;;;;;;;;;;5033312;28;20029;-50
2021/03/18 07:06:34;;;;;;;3.45;1.30;;;;;;;;;;5033799;28;20096;-49
2021/03/18 07:09:09;;;;;;;2.63;1.00;;;;;;;;;;5033197;28;20076;-50
2021/03/18 07:11:37;;;;;;;4.93;1.35;;;;;;;;;;5033532;28;20080;-51
2021/03/18 07:14:05;;;;;;;3.97;1.23;;;;;;;;;;5032790;28;20581;-53
2021/03/18 07:16:48;;;;;;;3.45;0.93;;;;;;;;;;5033465;28;20029;-52
2021/03/18 07:19:28;;;;;;;2.35;1.08;;;;;;;;;;5032661;28;20112;-49
2021/03/18 07:21:56;;;;;;;2.17;1.05;;;;;;;;;;5033507;28;20088;-51
2021/03/18 07:24:24;;;;;;;2.38;1.08;;;;;;;;;;5032727;28;20032;-50
2021/03/18 07:26:51;;;;;;;2.60;1.20;;;;;;;;;;5033296;28;20029;-53
2021/03/18 07:29:20;;;;;;;3.30;1.10;;;;;;;;;;5032734;28;20020;-48
2021/03/18 07:31:47;;;;;;;2.90;1.20;;;;;;;;;;5033534;28;20055;-53
2021/03/18 07:34:15;;;;;;;2.42;1.17;;;;;;;;;;5033203;28;20033;-51
2021/03/18 07:36:42;;;;;;;4.07;1.35;;;;;;;;;;5032723;28;20018;-52
2021/03/18 07:39:09;;;;;;;2.65;0.80;;;;;;;;;;5032802;28;20025;-51
2021/03/18 07:41:36;;;;;;;2.97;1.10;;;;;;;;;;5032437;28;20018;-50
2021/03/18 07:44:04;;;;;;;3.03;1.00;;;;;;;;;;5032751;28;20586;-50
2021/03/18 07:46:32;;;;;;;3.65;1.33;;;;;;;;;;5032617;28;20100;-50
2021/03/18 07:49:01;;;;;;;3.33;1.05;;;;;;;;;;5032266;28;20045;-50
2021/03/18 07:51:30;;;;;;;1.35;0.80;;;;;;;;;;5031922;28;20026;-50
2021/03/18 07:53:58;;;;;;;2.58;1.00;;;;;;;;;;5032909;28;20091;-52
2021/03/18 07:56:26;;;;;;;1.65;0.75;;;;;;;;;;5032513;28;20025;-52
2021/03/18 07:59:06;;;;;;;2.33;1.00;;;;;;;;;;5014706;28;20528;-50
2021/03/18 08:01:34;;;;;;;2.80;0.90;;;;;;;;;;5032205;28;20083;-50
2021/03/18 08:04:02;;;;;;;2.78;1.08;;;;;;;;;;5032861;28;20036;-49
2021/03/18 08:06:41;;;;;;;2.80;1.08;;;;;;;;;;5032131;28;20025;-52
2021/03/18 08:09:20;;;;;;;3.80;1.00;;;;;;;;;;5032298;28;20596;-51
2021/03/18 08:11:48;;;;;;;2.75;0.90;;;;;;;;;;5031915;28;20064;-50
2021/03/18 08:14:20;;;;;;;2.45;0.98;;;;;;;;;;5032363;28;20042;-50
2021/03/18 08:16:47;;;;;;;2.05;0.90;;;;;;;;;;5032079;28;20025;-53
2021/03/18 08:19:15;;;;;;;2.55;0.90;;;;;;;;;;5032227;28;20030;-50
2021/03/18 08:21:43;;;;;;;5.68;1.30;;;;;;;;;;5031690;28;20021;-52
2021/03/18 08:24:14;;;;;;;2.50;0.90;;;;;;;;;;5032569;28;20044;-50
2021/03/18 08:26:44;;;;;;;1.60;0.80;;;;;;;;;;5031899;28;20025;-50
2021/03/18 08:29:12;;;;;;;2.65;0.93;;;;;;;;;;5031992;28;20017;-51
2021/03/18 08:31:44;;;;;;;2.38;0.80;;;;;;;;;;5031893;28;20029;-52
2021/03/18 08:34:11;;;;;;;2.10;0.90;;;;;;;;;;5032091;28;20025;-50
2021/03/18 08:36:39;;;;;;;2.80;0.90;;;;;;;;;;5032141;28;20267;-47
2021/03/18 08:39:08;;;;;;;3.05;0.88;;;;;;;;;;5031486;28;20160;-48
2021/03/18 08:41:43;;;;;;;1.88;0.73;;;;;;;;;;5032015;28;20053;-51
2021/03/18 08:44:31;;;;;;;1.45;0.70;;;;;;;;;;5031529;28;20021;-49
2021/03/18 08:46:59;;;;;;;2.47;1.05;;;;;;;;;;5032214;28;20036;-48
2021/03/18 08:49:28;;;;;;;2.72;0.73;;;;;;;;;;5030499;28;20088;-48
2021/03/18 08:51:57;;;;;;;1.85;0.70;;;;;;;;;;5031762;28;20030;-50
2021/03/18 08:54:39;;;;;;;2.55;0.88;;;;;;;;;;5031323;28;20124;-51
2021/03/18 08:57:08;;;;;;;4.78;1.10;;;;;;;;;;5032016;28;20029;-48
2021/03/18 08:59:35;;;;;;;1.58;0.85;;;;;;;;;;5031084;28;20017;-49
2021/03/18 09:02:06;;;;;;;1.27;0.70;;;;;;;;;;5031690;28;20022;-52
2021/03/18 09:04:37;;;;;;;2.25;0.98;;;;;;;;;;5030952;28;20041;-50
2021/03/18 09:07:07;;;;;;;2.13;1.00;;;;;;;;;;5032109;28;20108;-49
2021/03/18 09:09:35;;;;;;;3.85;1.13;;;;;;;;;;5030814;28;20033;-50
2021/03/18 09:12:02;;;;;;;2.75;0.90;;;;;;;;;;5031337;28;20029;-48
2021/03/18 09:14:29;;;;;;;1.85;0.73;;;;;;;;;;5031205;28;20370;-49
2021/03/18 09:17:06;;;;;;;2.20;1.02;;;;;;;;;;5031338;28;20089;-48
2021/03/18 09:19:34;;;;;;;3.40;0.90;;;;;;;;;;5030834;28;20026;-50
2021/03/18 09:22:01;;;;;;;2.50;1.00;;;;;;;;;;5031585;28;20018;-54
2021/03/18 09:24:40;;;;;;;2.65;0.70;;;;;;;;;;5031286;28;20155;-54
2021/03/18 09:27:08;;;;;;;2.42;0.70;;;;;;;;;;5031465;28;20026;-56
2021/03/18 09:29:35;;;;;;;2.50;0.70;;;;;;;;;;5030891;28;20022;-49
2021/03/18 09:32:03;;;;;;;2.50;0.90;;;;;;;;;;5031393;28;20030;-52
2021/03/18 09:34:34;;;;;;;1.75;0.80;;;;;;;;;;5030868;28;20044;-52
2021/03/18 09:37:01;;;;;;;2.53;0.82;;;;;;;;;;5031566;28;20040;-52
2021/03/18 09:39:28;;;;;;;1.92;0.85;;;;;;;;;;5031214;28;20080;-55
2021/03/18 09:42:02;;;;;;;1.88;0.73;;;;;;;;;;5031042;28;20028;-50
2021/03/18 09:44:30;;;;;;;1.15;0.52;;;;;;;;;;5031165;28;20481;-52
2021/03/18 09:47:07;;;;;;;2.78;0.60;;;;;;;;;;5030850;28;20032;-53
2021/03/18 09:49:35;;;;;;;2.42;0.73;;;;;;;;;;5030870;28;20130;-50
2021/03/18 09:52:03;;;;;;;2.80;0.85;;;;;;;;;;5030851;28;20057;-49
2021/03/18 09:54:30;;;;;;;2.25;0.60;;;;;;;;;;5031064;28;20033;-51
2021/03/18 09:57:01;;;;;;;2.70;0.80;;;;;;;;;;5030944;28;20020;-51
2021/03/18 09:59:29;;;;;;;1.40;0.70;;;;;;;;;;5031270;28;20113;-52
2021/03/18 10:01:56;;;;;;;1.92;0.90;;;;;;;;;;5030173;28;20013;-52
2021/03/18 10:04:24;;;;;;;2.15;0.73;;;;;;;;;;5031016;28;20021;-51
2021/03/18 10:06:53;;;;;;;3.10;0.90;;;;;;;;;;5031004;28;20473;-49
2021/03/18 10:09:30;;;;;;;1.73;0.65;;;;;;;;;;5031263;28;20032;-54
2021/03/18 10:11:57;;;;;;;0.90;0.50;;;;;;;;;;5030513;28;20428;-52
2021/03/18 10:14:27;;;;;;;2.53;0.70;;;;;;;;;;5030715;28;20029;-50
2021/03/18 10:16:54;;;;;;;1.98;0.70;;;;;;;;;;5211082;23;20071;-50
2021/03/18 10:19:25;;;;;;;2.67;1.00;;;;;;;;;;5072948;28;20020;-53
2021/03/18 10:21:53;;;;;;;2.35;0.80;;;;;;;;;;5073121;28;20028;-50
2021/03/18 10:24:20;;;;;;;1.65;0.70;;;;;;;;;;5073999;28;20028;-52
2021/03/18 10:26:48;;;;;;;1.13;0.55;;;;;;;;;;5073242;28;20028;-49
2021/03/18 10:29:15;;;;;;;2.80;0.82;;;;;;;;;;5073783;28;20021;-52
2021/03/18 10:31:42;;;;;;;2.03;1.02;;;;;;;;;;5073855;28;20066;-51
2021/03/18 10:34:29;;;;;;;2.28;0.80;;;;;;;;;;5073283;28;20075;-50
2021/03/18 10:36:56;;;;;;;2.72;0.90;;;;;;;;;;5073786;28;20028;-50
2021/03/18 10:39:24;;;;;;;2.22;0.82;;;;;;;;;;5073492;28;20079;-51
2021/03/18 10:41:55;;;;;;;2.55;0.90;;;;;;;;;;5073221;28;20040;-50
2021/03/18 10:44:22;;;;;;;2.40;0.77;;;;;;;;;;5073019;28;20024;-53
2021/03/18 10:46:49;;;;;;;3.17;0.70;;;;;;;;;;5073790;28;20478;-50
2021/03/18 10:49:16;;;;;;;2.55;0.98;;;;;;;;;;5072504;28;20027;-51
2021/03/18 10:51:47;;;;;;;3.60;0.65;;;;;;;;;;5073391;28;20054;-49
2021/03/18 10:54:21;;;;;;;2.28;0.82;;;;;;;;;;5073237;28;20039;-55
2021/03/18 10:56:50;;;;;;;1.55;0.52;;;;;;;;;;5073762;28;20492;-54
2021/03/18 10:59:20;;;;;;;2.63;0.68;;;;;;;;;;5073091;28;20021;-50
2021/03/18 11:01:48;;;;;;;1.90;0.70;;;;;;;;;;5073158;28;20491;-54
2021/03/18 11:04:16;;;;;;;3.25;0.90;;;;;;;;;;5073441;28;20107;-52
2021/03/18 11:06:46;;;;;;;1.75;0.68;;;;;;;;;;5073074;28;20656;-51
2021/03/18 11:09:14;;;;;;;2.83;0.98;;;;;;;;;;5073270;28;20436;-50
2021/03/18 11:11:41;;;;;;;1.70;0.70;;;;;;;;;;5072044;28;20040;-50
2021/03/18 11:14:13;;;;;;;2.38;0.82;;;;;;;;;;5072798;28;20357;-50
2021/03/18 11:16:41;;;;;;;2.72;0.90;;;;;;;;;;5059733;28;20045;-55
2021/03/18 11:19:16;;;;;;;5.13;0.88;;;;;;;;;;5041647;28;20029;-58
2021/03/18 11:21:46;;;;;;;1.85;0.50;;;;;;;;;;5032431;28;20037;-55
2021/03/18 11:24:13;;;;;;;4.75;0.90;;;;;;;;;;5036751;28;20028;-57
2021/03/18 11:26:41;;;;;;;4.30;0.70;;;;;;;;;;5045755;28;20026;-56
2021/03/18 11:29:13;;;;;;;7.32;1.05;;;;;;;;;;5036431;28;20021;-54
2021/03/18 11:31:41;;;;;;;6.22;1.05;;;;;;;;;;5040695;28;20036;-54
2021/03/18 11:34:22;;;;;;;3.60;0.90;;;;;;;;;;5040115;28;20184;-52
2021/03/18 11:36:50;;;;;;;3.70;0.68;;;;;;;;;;5032038;28;20032;-50
2021/03/18 11:39:17;;;;;;;1.75;0.80;;;;;;;;;;5033174;28;20056;-55
2021/03/18 11:41:44;;;;;;;2.90;0.77;;;;;;;;;;5032460;28;20423;-50
2021/03/18 11:44:14;;;;;;;3.90;0.95;;;;;;;;;;5031732;28;20034;-49
2021/03/18 11:46:41;;;;;;;3.95;0.80;;;;;;;;;;5026139;28;20108;-49
2021/03/18 11:49:08;;;;;;;6.32;0.90;;;;;;;;;;5015104;28;20032;-50
2021/03/18 11:51:36;;;;;;;5.65;0.88;;;;;;;;;;5020535;28;20021;-55
2021/03/18 11:54:03;;;;;;;2.80;0.98;;;;;;;;;;5015296;28;20074;-58
2021/03/18 11:56:30;;;;;;;4.03;0.85;;;;;;;;;;5040004;28;20017;-59
2021/03/18 11:58:57;;;;;;;4.63;0.93;;;;;;;;;;5051159;28;20515;-57
2021/03/18 12:01:24;;;;;;;10.15;1.20;;;;;;;;;;5051997;28;20080;-57
2021/03/18 12:03:51;;;;;;;2.88;0.80;;;;;;;;;;5051799;28;20067;-53
2021/03/18 12:06:19;;;;;;;4.60;1.02;;;;;;;;;;5045794;28;20025;-61
2021/03/18 12:08:46;;;;;;;5.40;1.00;;;;;;;;;;5048907;28;20013;-60
2021/03/18 12:11:13;;;;;;;5.32;0.90;;;;;;;;;;5046762;28;20479;-59
2021/03/18 12:13:40;;;;;;;6.45;1.10;;;;;;;;;;5042604;28;20040;-57
2021/03/18 12:16:07;;;;;;;2.38;0.90;;;;;;;;;;5045240;28;20484;-52
2021/03/18 12:18:34;;;;;;;3.80;0.80;;;;;;;;;;5043522;28;20025;-52
2021/03/18 12:21:01;;;;;;;7.72;1.30;;;;;;;;;;5040817;28;20088;-53
2021/03/18 12:23:29;;;;;;;4.45;1.00;;;;;;;;;;5042493;28;20112;-54
2021/03/18 12:25:56;;;;;;;4.53;1.00;;;;;;;;;;5040218;28;20032;-58
2021/03/18 12:28:24;;;;;;;6.47;1.17;;;;;;;;;;5045940;28;20120;-60
2021/03/18 12:30:52;;;;;;;8.90;0.90;;;;;;;;;;5051312;28;20025;-53
2021/03/18 12:33:19;;;;;;;4.07;1.00;;;;;;;;;;5051498;28;20039;-57
2021/03/18 12:35:50;;;;;;;6.35;1.30;;;;;;;;;;5050759;28;20473;-60
2021/03/18 12:38:19;;;;;;;4.03;1.00;;;;;;;;;;5050301;28;20033;-57
2021/03/18 12:40:46;;;;;;;7.63;1.05;;;;;;;;;;5042001;28;20029;-58
2021/03/18 12:43:13;;;;;;;5.90;1.08;;;;;;;;;;5036313;28;20739;-58
2021/03/18 12:45:42;;;;;;;4.68;1.00;;;;;;;;;;5030770;28;20519;-69
2021/03/18 12:48:09;;;;;;;5.15;1.02;;;;;;;;;;5038627;28;20025;-62
2021/03/18 12:50:36;;;;;;;4.47;1.02;;;;;;;;;;5051262;28;20029;-53
2021/03/18 12:53:03;;;;;;;4.75;1.10;;;;;;;;;;5050937;28;20150;-57
2021/03/18 12:55:30;;;;;;;6.13;1.33;;;;;;;;;;5030711;28;20033;-53
2021/03/18 12:57:58;;;;;;;2.42;1.00;;;;;;;;;;5031628;28;20496;-56
2021/03/18 13:00:27;;;;;;;7.63;1.20;;;;;;;;;;5037080;28;20029;-52
2021/03/18 13:02:54;;;;;;;5.30;1.20;;;;;;;;;;5050487;28;20025;-55
2021/03/18 13:05:21;;;;;;;3.83;0.90;;;;;;;;;;5050816;28;20499;-56
2021/03/18 13:07:49;;;;;;;5.88;0.80;;;;;;;;;;5050737;28;20021;-60
2021/03/18 13:10:16;;;;;;;5.80;1.23;;;;;;;;;;5051153;28;20102;-63
2021/03/18 13:12:44;;;;;;;9.48;1.30;;;;;;;;;;5036908;28;20041;-51
2021/03/18 13:15:12;;;;;;;5.43;1.60;;;;;;;;;;5030122;28;20042;-59
2021/03/18 13:17:39;;;;;;;5.43;1.33;;;;;;;;;;5030598;28;20100;-63
2021/03/18 13:20:08;;;;;;;5.40;1.42;;;;;;;;;;5013557;28;20029;-63
2021/03/18 13:22:35;;;;;;;3.55;1.30;;;;;;;;;;5031037;28;20020;-52
2021/03/18 13:25:02;;;;;;;4.00;1.50;;;;;;;;;;5030802;28;20392;-59
2021/03/18 13:27:29;;;;;;;4.95;1.75;;;;;;;;;;5030516;28;20049;-52
2021/03/18 13:29:56;;;;;;;5.82;1.50;;;;;;;;;;5031041;28;20481;-54
2021/03/18 13:32:23;;;;;;;7.75;1.83;;;;;;;;;;5030744;28;20429;-57
2021/03/18 13:34:50;;;;;;;6.65;1.33;;;;;;;;;;5038868;28;20037;-57
2021/03/18 13:37:17;;;;;;;4.13;1.48;;;;;;;;;;5050329;28;20101;-58
2021/03/18 13:39:44;;;;;;;7.25;1.90;;;;;;;;;;5050731;28;20029;-50
2021/03/18 13:42:11;;;;;;;6.90;1.25;;;;;;;;;;5051021;28;20027;-49
2021/03/18 13:44:39;;;;;;;9.27;1.90;;;;;;;;;;5050442;28;20036;-54
2021/03/18 13:47:06;;;;;;;7.60;1.73;;;;;;;;;;5050724;28;20033;-56
2021/03/18 13:49:33;;;;;;;5.88;1.70;;;;;;;;;;5052407;28;20390;-57
2021/03/18 13:52:03;;;;;;;5.68;1.90;;;;;;;;;;5054796;28;20388;-53
2021/03/18 13:54:30;;;;;;;7.97;1.80;;;;;;;;;;5053359;28;20030;-57
2021/03/18 13:56:57;;;;;;;8.88;1.80;;;;;;;;;;5054351;28;20029;-52
2021/03/18 13:59:24;;;;;;;5.20;1.38;;;;;;;;;;5037451;28;20040;-59
2021/03/18 14:01:51;;;;;;;5.93;1.77;;;;;;;;;;5034546;28;20041;-58
2021/03/18 14:04:18;;;;;;;7.10;1.73;;;;;;;;;;5034072;28;20473;-55
2021/03/18 14:06:45;;;;;;;5.28;1.70;;;;;;;;;;5034704;28;20032;-55
2021/03/18 14:09:12;;;;;;;6.18;1.80;;;;;;;;;;5033854;28;20025;-53
2021/03/18 14:11:40;;;;;;;9.07;1.58;;;;;;;;;;5034449;28;20534;-56
2021/03/18 14:14:07;;;;;;;7.47;2.22;;;;;;;;;;5034557;28;20044;-53
2021/03/18 14:16:34;;;;;;;6.80;1.65;;;;;;;;;;5033532;28;20049;-57
2021/03/18 14:19:02;;;;;;;4.88;1.60;;;;;;;;;;5021682;28;20029;-56
2021/03/18 14:21:30;;;;;;;4.50;1.60;;;;;;;;;;5053643;28;20059;-55
2021/03/18 14:23:57;;;;;;;9.50;1.58;;;;;;;;;;5053881;28;20054;-55
2021/03/18 14:26:24;;;;;;;6.72;1.80;;;;;;;;;;5053337;28;20071;-55
2021/03/18 14:28:51;;;;;;;10.65;1.88;;;;;;;;;;5054316;28;20039;-54
2021/03/18 14:31:18;;;;;;;7.03;1.67;;;;;;;;;;5035689;28;20025;-54
2021/03/18 14:33:45;;;;;;;6.88;1.60;;;;;;;;;;5053746;28;20033;-51
2021/03/18 14:36:12;;;;;;;6.90;1.52;;;;;;;;;;5052732;28;20087;-52
2021/03/18 14:38:39;;;;;;;7.03;1.40;;;;;;;;;;5053570;28;20037;-57
2021/03/18 14:41:06;;;;;;;4.68;1.25;;;;;;;;;;5053383;28;20029;-49
2021/03/18 14:43:33;;;;;;;5.55;1.42;;;;;;;;;;5053231;28;20036;-54
2021/03/18 14:46:00;;;;;;;6.45;1.65;;;;;;;;;;5053167;28;20083;-52
2021/03/18 14:48:27;;;;;;;6.28;1.70;;;;;;;;;;5052855;28;20044;-54